Time;durP1;ratioP1;P1;durP2;ratioP2;P2;SDS_P1;SDS_P2;PMS_P1;PMS_P2;Temp;Humidity;BMP_temperature;BMP_pressure;BME280_temperature;BME280_humidity;BME280_pressure;Samples;Min_cycle;Max_cycle;Signal;HPM_P1;HPM_P2
2022/11/17 00:02:04;;;;;;;19.13;6.47;;;;;;;;;;5012945;28;20046;-77
2022/11/17 00:04:30;;;;;;;14.88;6.68;;;;;;;;;;5018598;28;20037;-77
2022/11/17 00:06:59;;;;;;;18.27;6.00;;;;;;;;;;5019191;28;20014;-76
2022/11/17 00:09:25;;;;;;;19.45;6.75;;;;;;;;;;5021202;28;20053;-77
2022/11/17 00:14:39;;;;;;;14.25;6.80;;;;;;;;;;5023977;28;20040;-79
2022/11/17 00:17:09;;;;;;;16.65;7.05;;;;;;;;;;5027471;28;20010;-77
2022/11/17 00:22:20;;;;;;;17.95;7.82;;;;;;;;;;5022818;28;20048;-79
2022/11/17 00:24:47;;;;;;;23.33;9.13;;;;;;;;;;5022850;28;20021;-78
2022/11/17 00:27:13;;;;;;;22.63;9.50;;;;;;;;;;5017315;28;20041;-76
2022/11/17 00:29:40;;;;;;;17.67;9.82;;;;;;;;;;5013059;28;20037;-77
2022/11/17 00:34:55;;;;;;;18.15;10.98;;;;;;;;;;5011827;28;20064;-78
2022/11/17 00:37:24;;;;;;;25.67;13.70;;;;;;;;;;5007499;28;20053;-78
2022/11/17 00:39:50;;;;;;;23.17;10.88;;;;;;;;;;5001806;28;20109;-78
2022/11/17 00:42:16;;;;;;;24.55;11.32;;;;;;;;;;5000725;28;20179;-79
2022/11/17 00:45:00;;;;;;;19.80;10.70;;;;;;;;;;5006483;28;20097;-78
2022/11/17 00:47:27;;;;;;;22.08;12.95;;;;;;;;;;5009513;28;20057;-78
2022/11/17 00:49:53;;;;;;;22.55;12.52;;;;;;;;;;5004855;28;20115;-78
2022/11/17 00:52:19;;;;;;;25.55;12.15;;;;;;;;;;5005109;28;20021;-78
2022/11/17 00:54:47;;;;;;;14.73;10.23;;;;;;;;;;5004021;28;20224;-77
2022/11/17 00:57:13;;;;;;;22.08;10.75;;;;;;;;;;5010785;28;20034;-78
2022/11/17 00:59:39;;;;;;;19.73;10.88;;;;;;;;;;5008599;28;20101;-77
2022/11/17 01:02:06;;;;;;;20.42;10.07;;;;;;;;;;5026755;28;20117;-77
2022/11/17 01:04:32;;;;;;;20.85;8.93;;;;;;;;;;5005078;28;20033;-77
2022/11/17 01:06:58;;;;;;;14.35;9.10;;;;;;;;;;5020696;28;20045;-77
2022/11/17 01:09:24;;;;;;;17.70;8.73;;;;;;;;;;5023356;28;20022;-78
2022/11/17 01:11:51;;;;;;;15.43;8.13;;;;;;;;;;5015746;28;20029;-78
2022/11/17 01:14:18;;;;;;;14.75;7.40;;;;;;;;;;5019293;28;20046;-77
2022/11/17 01:16:45;;;;;;;16.80;8.63;;;;;;;;;;5024657;28;20038;-78
2022/11/17 01:19:12;;;;;;;18.90;8.90;;;;;;;;;;5028597;28;20026;-79
2022/11/17 01:21:38;;;;;;;18.05;8.15;;;;;;;;;;5015396;28;20019;-77
2022/11/17 01:24:04;;;;;;;16.58;8.18;;;;;;;;;;5026371;28;20045;-79
2022/11/17 01:26:32;;;;;;;15.95;8.25;;;;;;;;;;5021731;28;20018;-79
2022/11/17 01:28:58;;;;;;;11.93;7.35;;;;;;;;;;5008068;28;20030;-78
2022/11/17 01:31:33;;;;;;;16.63;7.55;;;;;;;;;;5023622;28;20057;-77
2022/11/17 01:34:00;;;;;;;12.90;7.47;;;;;;;;;;5008141;28;20104;-79
2022/11/17 01:36:28;;;;;;;14.90;8.00;;;;;;;;;;5011210;28;20526;-79
2022/11/17 01:38:54;;;;;;;12.52;6.72;;;;;;;;;;4997306;28;20364;-78
2022/11/17 01:41:25;;;;;;;13.73;6.22;;;;;;;;;;5015861;28;20037;-78
2022/11/17 01:43:55;;;;;;;8.65;5.32;;;;;;;;;;5004221;28;20038;-78
2022/11/17 01:46:31;;;;;;;12.07;6.03;;;;;;;;;;5011159;28;20042;-78
2022/11/17 01:49:11;;;;;;;7.40;4.20;;;;;;;;;;4999995;28;21655;-78
2022/11/17 01:51:40;;;;;;;9.82;5.13;;;;;;;;;;5001086;28;20085;-78
2022/11/17 01:54:06;;;;;;;10.73;5.10;;;;;;;;;;5003062;28;20030;-77
2022/11/17 01:56:37;;;;;;;10.85;6.18;;;;;;;;;;5008718;28;20053;-78
2022/11/17 01:59:03;;;;;;;;;;;;;;;;;;5006051;28;20050;-79
2022/11/17 02:01:30;;;;;;;15.13;6.07;;;;;;;;;;5006077;28;19913;-77
2022/11/17 02:03:56;;;;;;;10.55;6.88;;;;;;;;;;5010119;28;20034;-78
2022/11/17 02:06:30;;;;;;;12.20;6.13;;;;;;;;;;5016833;28;20109;-78
2022/11/17 02:08:57;;;;;;;12.02;7.25;;;;;;;;;;5019695;28;20407;-78
2022/11/17 02:11:23;;;;;;;15.32;7.28;;;;;;;;;;5015202;28;20022;-77
2022/11/17 02:13:51;;;;;;;12.63;7.20;;;;;;;;;;5032713;28;20013;-85
2022/11/17 02:16:17;;;;;;;13.07;7.07;;;;;;;;;;5020800;28;20030;-78
2022/11/17 02:18:44;;;;;;;15.18;8.02;;;;;;;;;;5023381;28;20033;-79
2022/11/17 02:21:37;;;;;;;16.88;7.40;;;;;;;;;;5028516;28;20113;-78
2022/11/17 02:24:18;;;;;;;13.00;7.03;;;;;;;;;;4988890;28;20054;-79
2022/11/17 02:27:03;;;;;;;15.48;7.80;;;;;;;;;;5030575;28;20041;-78
2022/11/17 02:29:38;;;;;;;12.98;7.97;;;;;;;;;;5011008;28;20041;-78
2022/11/17 02:32:06;;;;;;;16.77;8.10;;;;;;;;;;5014566;28;20029;-80
2022/11/17 02:34:35;;;;;;;12.13;8.02;;;;;;;;;;5009623;28;20018;-80
2022/11/17 02:37:07;;;;;;;16.25;8.15;;;;;;;;;;5003428;28;20535;-79
2022/11/17 02:39:38;;;;;;;11.63;8.45;;;;;;;;;;5000205;28;20027;-78
2022/11/17 02:42:06;;;;;;;13.35;7.80;;;;;;;;;;5012643;28;20449;-81
2022/11/17 02:44:36;;;;;;;14.90;8.07;;;;;;;;;;5009515;28;20033;-78
2022/11/17 02:47:02;;;;;;;13.00;7.85;;;;;;;;;;5012015;28;20121;-78
2022/11/17 02:49:36;;;;;;;12.40;8.07;;;;;;;;;;5005574;28;20023;-78
2022/11/17 02:52:03;;;;;;;11.30;7.53;;;;;;;;;;4998913;28;20437;-79
2022/11/17 02:54:30;;;;;;;14.70;7.78;;;;;;;;;;5012264;28;20038;-77
2022/11/17 02:56:56;;;;;;;14.93;8.48;;;;;;;;;;5004042;28;20045;-78
2022/11/17 02:59:24;;;;;;;15.57;7.30;;;;;;;;;;5008610;28;20041;-77
2022/11/17 03:02:00;;;;;;;11.70;7.07;;;;;;;;;;5008649;28;20038;-78
2022/11/17 03:04:35;;;;;;;14.80;7.03;;;;;;;;;;5011018;28;20041;-78
2022/11/17 03:07:13;;;;;;;11.35;7.07;;;;;;;;;;5019119;28;20033;-78
2022/11/17 03:09:53;;;;;;;11.02;7.43;;;;;;;;;;5019554;28;20065;-77
2022/11/17 03:12:58;;;;;;;9.35;5.82;;;;;;;;;;5022362;28;20185;-79
2022/11/17 03:15:41;;;;;;;12.43;6.25;;;;;;;;;;4948806;29;20028;-79
2022/11/17 03:18:11;;;;;;;12.88;6.22;;;;;;;;;;4945956;29;20242;-77
2022/11/17 03:20:40;;;;;;;10.75;6.15;;;;;;;;;;4985265;28;20053;-78
2022/11/17 03:23:10;;;;;;;14.40;7.13;;;;;;;;;;5009023;28;20042;-79
2022/11/17 03:25:37;;;;;;;13.48;6.20;;;;;;;;;;5008590;28;20076;-78
2022/11/17 03:28:06;;;;;;;11.18;5.60;;;;;;;;;;5004512;28;20041;-79
2022/11/17 03:30:38;;;;;;;11.63;5.95;;;;;;;;;;5004488;28;20467;-78
2022/11/17 03:33:07;;;;;;;6.72;5.35;;;;;;;;;;4999996;28;20070;-78
2022/11/17 03:35:35;;;;;;;10.20;5.30;;;;;;;;;;5012317;28;20034;-77
2022/11/17 03:38:04;;;;;;;7.25;5.05;;;;;;;;;;5001809;28;20639;-78
2022/11/17 03:40:32;;;;;;;8.60;5.60;;;;;;;;;;5007665;28;20057;-79
2022/11/17 03:43:00;;;;;;;9.95;4.82;;;;;;;;;;4999060;28;20069;-80
2022/11/17 03:45:28;;;;;;;10.30;5.07;;;;;;;;;;5006018;28;20041;-77
2022/11/17 03:48:00;;;;;;;7.68;4.55;;;;;;;;;;5010220;28;20138;-79
2022/11/17 03:50:36;;;;;;;7.88;4.25;;;;;;;;;;5008273;28;20069;-78
2022/11/17 03:53:03;;;;;;;10.98;3.80;;;;;;;;;;5020694;28;20018;-78
2022/11/17 03:55:48;;;;;;;6.90;4.20;;;;;;;;;;5007127;28;20484;-79
2022/11/17 03:58:17;;;;;;;13.38;3.75;;;;;;;;;;5024192;28;20042;-79
2022/11/17 04:00:44;;;;;;;7.88;3.55;;;;;;;;;;5016415;28;20121;-78
2022/11/17 04:03:10;;;;;;;6.82;3.80;;;;;;;;;;5018890;28;20030;-79
2022/11/17 04:05:36;;;;;;;7.78;3.50;;;;;;;;;;5028417;28;20060;-79
2022/11/17 04:08:02;;;;;;;13.48;4.07;;;;;;;;;;5024437;28;20066;-78
2022/11/17 04:10:28;;;;;;;6.82;3.50;;;;;;;;;;5019400;28;20040;-79
2022/11/17 04:15:57;;;;;;;6.38;3.10;;;;;;;;;;5018449;28;20056;-80
2022/11/17 04:18:24;;;;;;;6.95;3.20;;;;;;;;;;5008991;28;20531;-78
2022/11/17 04:20:51;;;;;;;12.15;3.85;;;;;;;;;;5012578;28;20030;-79
2022/11/17 04:23:17;;;;;;;7.97;3.67;;;;;;;;;;5002622;28;20040;-79
2022/11/17 04:28:36;;;;;;;5.82;3.20;;;;;;;;;;5001326;28;20045;-77
2022/11/17 04:31:14;;;;;;;5.50;3.53;;;;;;;;;;5004163;28;20348;-76
2022/11/17 04:33:41;;;;;;;7.07;3.28;;;;;;;;;;5022365;28;20034;-76
2022/11/17 04:36:08;;;;;;;6.18;3.33;;;;;;;;;;5004237;28;20530;-80
2022/11/17 04:38:34;;;;;;;7.28;3.30;;;;;;;;;;5001548;28;20542;-80
2022/11/17 04:43:50;;;;;;;9.15;2.85;;;;;;;;;;5004312;28;20069;-80
2022/11/17 04:46:16;;;;;;;6.07;2.75;;;;;;;;;;5018291;28;20046;-79
2022/11/17 04:48:42;;;;;;;7.13;3.15;;;;;;;;;;5013513;28;20019;-77
2022/11/17 04:51:08;;;;;;;6.53;2.60;;;;;;;;;;5020530;28;20070;-79
2022/11/17 04:53:35;;;;;;;6.70;2.67;;;;;;;;;;5016696;28;20570;-80
2022/11/17 04:56:01;;;;;;;7.03;3.30;;;;;;;;;;5031623;28;20160;-79
2022/11/17 04:58:27;;;;;;;5.72;2.67;;;;;;;;;;5026250;28;20042;-80
2022/11/17 05:00:54;;;;;;;10.02;2.92;;;;;;;;;;5024331;28;20034;-82
2022/11/17 05:03:20;;;;;;;5.75;2.70;;;;;;;;;;5021173;28;20480;-82
2022/11/17 05:05:46;;;;;;;6.30;2.70;;;;;;;;;;5011679;28;20029;-78
2022/11/17 05:08:31;;;;;;;5.53;3.05;;;;;;;;;;5010885;28;20042;-78
2022/11/17 05:19:31;;;;;;;6.35;3.10;;;;;;;;;;5005539;28;20084;-78
2022/11/17 05:21:57;;;;;;;7.93;3.45;;;;;;;;;;4997867;28;20098;-78
2022/11/17 05:24:23;;;;;;;9.13;3.60;;;;;;;;;;5002115;28;20065;-77
2022/11/17 05:26:49;;;;;;;5.57;3.60;;;;;;;;;;5000319;28;20030;-78
2022/11/17 05:29:17;;;;;;;6.00;3.40;;;;;;;;;;4999065;28;20026;-81
2022/11/17 05:31:43;;;;;;;6.05;3.25;;;;;;;;;;5000473;28;20085;-79
2022/11/17 05:34:11;;;;;;;8.32;3.20;;;;;;;;;;5004440;28;20061;-79
2022/11/17 05:36:37;;;;;;;10.02;4.10;;;;;;;;;;5004590;28;20045;-79
2022/11/17 05:39:03;;;;;;;10.52;4.05;;;;;;;;;;5011650;28;20045;-79
2022/11/17 05:41:29;;;;;;;9.75;3.80;;;;;;;;;;5016440;28;20022;-79
2022/11/17 05:43:55;;;;;;;7.03;4.18;;;;;;;;;;5024019;28;20041;-78
2022/11/17 05:46:22;;;;;;;6.78;3.90;;;;;;;;;;5024020;28;20042;-77
2022/11/17 05:48:51;;;;;;;6.32;4.15;;;;;;;;;;5022653;28;20030;-79
2022/11/17 05:51:19;;;;;;;9.35;4.35;;;;;;;;;;5022841;28;20014;-78
2022/11/17 05:53:45;;;;;;;7.20;4.60;;;;;;;;;;5020175;28;20050;-79
2022/11/17 05:56:29;;;;;;;8.45;4.88;;;;;;;;;;5016618;28;20026;-78
2022/11/17 05:59:01;;;;;;;8.60;4.90;;;;;;;;;;5020818;28;20048;-78
2022/11/17 06:01:28;;;;;;;9.32;5.13;;;;;;;;;;5020393;28;20024;-78
2022/11/17 06:03:56;;;;;;;8.48;5.30;;;;;;;;;;5021601;28;20060;-79
2022/11/17 06:06:22;;;;;;;9.85;5.43;;;;;;;;;;5018742;28;20275;-77
2022/11/17 06:08:49;;;;;;;8.75;5.68;;;;;;;;;;5017929;28;20460;-78
2022/11/17 06:11:15;;;;;;;10.77;6.07;;;;;;;;;;5002285;28;20088;-77
2022/11/17 06:13:42;;;;;;;12.05;5.85;;;;;;;;;;5008200;28;20026;-80
2022/11/17 06:16:09;;;;;;;7.65;4.82;;;;;;;;;;5010580;28;20098;-77
2022/11/17 06:18:38;;;;;;;8.68;5.40;;;;;;;;;;5004484;28;20057;-80
2022/11/17 06:21:04;;;;;;;7.63;5.22;;;;;;;;;;5003998;28;20027;-76
2022/11/17 06:23:32;;;;;;;7.35;4.38;;;;;;;;;;5004669;28;20037;-81
2022/11/17 06:26:00;;;;;;;10.15;4.15;;;;;;;;;;5009036;28;20044;-80
2022/11/17 06:28:27;;;;;;;9.50;4.15;;;;;;;;;;4996320;28;20045;-79
2022/11/17 06:30:54;;;;;;;6.90;3.42;;;;;;;;;;5004908;28;20033;-80
2022/11/17 06:33:20;;;;;;;7.03;3.20;;;;;;;;;;5006429;28;20190;-80
2022/11/17 06:35:48;;;;;;;9.23;3.10;;;;;;;;;;5007531;28;20038;-81
2022/11/17 06:38:14;;;;;;;7.03;2.55;;;;;;;;;;5003328;28;20034;-78
2022/11/17 06:40:40;;;;;;;6.97;2.80;;;;;;;;;;5006143;28;20369;-79
2022/11/17 06:43:09;;;;;;;10.27;2.75;;;;;;;;;;5011011;28;20080;-79
2022/11/17 06:45:45;;;;;;;9.60;2.60;;;;;;;;;;4998189;28;20034;-79
2022/11/17 06:48:12;;;;;;;8.40;2.67;;;;;;;;;;5012910;28;20323;-79
2022/11/17 06:50:38;;;;;;;11.82;2.38;;;;;;;;;;5010973;28;20029;-79
2022/11/17 06:53:05;;;;;;;7.53;2.78;;;;;;;;;;5012746;28;20040;-78
2022/11/17 06:55:32;;;;;;;9.52;2.90;;;;;;;;;;5014673;28;20035;-79
2022/11/17 06:57:59;;;;;;;8.95;3.20;;;;;;;;;;5022203;28;20688;-80
2022/11/17 07:00:26;;;;;;;12.10;3.15;;;;;;;;;;5014350;28;20031;-80
2022/11/17 07:02:52;;;;;;;14.43;3.63;;;;;;;;;;5027998;28;20040;-79
2022/11/17 07:05:18;;;;;;;17.67;4.13;;;;;;;;;;5021353;28;20381;-79
2022/11/17 07:07:44;;;;;;;11.88;4.35;;;;;;;;;;5026648;28;20045;-90
2022/11/17 07:10:10;;;;;;;14.50;5.20;;;;;;;;;;5028444;28;20014;-77
2022/11/17 07:12:36;;;;;;;17.88;4.18;;;;;;;;;;5019649;28;20026;-80
2022/11/17 07:15:02;;;;;;;15.25;5.07;;;;;;;;;;5020325;28;20030;-80
2022/11/17 07:17:28;;;;;;;16.50;4.68;;;;;;;;;;5029714;28;20484;-78
2022/11/17 07:19:54;;;;;;;15.85;6.03;;;;;;;;;;5026390;28;20048;-80
2022/11/17 07:22:20;;;;;;;13.70;5.03;;;;;;;;;;5018877;28;20014;-78
2022/11/17 07:24:46;;;;;;;11.18;5.13;;;;;;;;;;5038395;28;20033;-83
2022/11/17 07:27:12;;;;;;;12.48;4.32;;;;;;;;;;5010375;28;20037;-80
2022/11/17 07:29:57;;;;;;;9.70;4.70;;;;;;;;;;5021708;28;20026;-80
2022/11/17 07:32:23;;;;;;;10.00;3.35;;;;;;;;;;5017854;28;20065;-80
2022/11/17 07:34:50;;;;;;;13.20;3.42;;;;;;;;;;5008866;28;20125;-80
2022/11/17 07:37:16;;;;;;;14.52;3.55;;;;;;;;;;4998898;28;20031;-80
2022/11/17 07:39:42;;;;;;;10.15;3.15;;;;;;;;;;4992069;28;20403;-79
2022/11/17 07:42:08;;;;;;;11.32;3.10;;;;;;;;;;4993406;28;20095;-79
2022/11/17 07:44:53;;;;;;;12.77;3.08;;;;;;;;;;4997830;28;20031;-79
2022/11/17 07:47:21;;;;;;;8.68;2.85;;;;;;;;;;5009268;28;20046;-79
2022/11/17 07:49:48;;;;;;;9.57;3.22;;;;;;;;;;5008748;28;20116;-79
2022/11/17 07:52:14;;;;;;;9.10;3.20;;;;;;;;;;5006069;28;20709;-81
2022/11/17 07:54:40;;;;;;;6.40;2.75;;;;;;;;;;5004255;28;20507;-80
2022/11/17 07:57:06;;;;;;;17.35;2.78;;;;;;;;;;5004755;28;20175;-81
2022/11/17 07:59:34;;;;;;;9.95;2.70;;;;;;;;;;5006203;28;20038;-80
2022/11/17 08:02:00;;;;;;;8.32;2.83;;;;;;;;;;5011273;28;20129;-80
2022/11/17 08:04:26;;;;;;;7.63;2.42;;;;;;;;;;5013257;28;20036;-78
2022/11/17 08:06:52;;;;;;;8.18;2.85;;;;;;;;;;5007766;28;20022;-80
2022/11/17 08:09:18;;;;;;;12.77;3.10;;;;;;;;;;5020733;28;20516;-77
2022/11/17 08:11:44;;;;;;;10.15;3.25;;;;;;;;;;5014097;28;20073;-78
2022/11/17 08:14:10;;;;;;;7.97;3.00;;;;;;;;;;5002264;28;20041;-78
2022/11/17 08:16:36;;;;;;;9.05;3.55;;;;;;;;;;5000798;28;20415;-80
2022/11/17 08:19:04;;;;;;;9.50;2.83;;;;;;;;;;5005227;28;20034;-79
2022/11/17 08:21:31;;;;;;;13.10;3.63;;;;;;;;;;5013894;28;20069;-79
2022/11/17 08:23:58;;;;;;;7.28;3.38;;;;;;;;;;5024237;28;20022;-78
2022/11/17 08:26:24;;;;;;;16.30;3.75;;;;;;;;;;5006445;28;20034;-78
2022/11/17 08:28:50;;;;;;;8.23;3.55;;;;;;;;;;5007965;28;20035;-80
2022/11/17 08:31:17;;;;;;;9.85;3.65;;;;;;;;;;5019391;28;20037;-79
2022/11/17 08:33:43;;;;;;;8.25;3.60;;;;;;;;;;5021539;28;20026;-79
2022/11/17 08:36:09;;;;;;;10.35;3.72;;;;;;;;;;5034087;28;20087;-78
2022/11/17 08:38:35;;;;;;;13.48;3.75;;;;;;;;;;5016704;28;20070;-79
2022/11/17 08:41:02;;;;;;;7.88;3.83;;;;;;;;;;5016524;28;20026;-78
2022/11/17 08:43:29;;;;;;;8.90;3.53;;;;;;;;;;5016494;28;20026;-77
2022/11/17 08:45:55;;;;;;;10.50;3.92;;;;;;;;;;5019973;28;20019;-78
2022/11/17 08:48:21;;;;;;;12.98;4.00;;;;;;;;;;5015485;28;20038;-76
2022/11/17 08:50:48;;;;;;;11.68;3.90;;;;;;;;;;5028948;28;20023;-89
2022/11/17 08:53:14;;;;;;;12.38;3.47;;;;;;;;;;5026318;28;20056;-78
2022/11/17 08:55:40;;;;;;;10.52;3.80;;;;;;;;;;5045730;28;20026;-77
2022/11/17 08:58:06;;;;;;;10.70;4.13;;;;;;;;;;5028912;28;20061;-78
2022/11/17 09:00:32;;;;;;;9.52;3.72;;;;;;;;;;5024902;28;20069;-78
2022/11/17 09:02:58;;;;;;;15.52;4.07;;;;;;;;;;5019718;28;20080;-77
2022/11/17 09:05:24;;;;;;;8.25;3.80;;;;;;;;;;5025297;28;20042;-78
2022/11/17 09:07:51;;;;;;;9.73;3.92;;;;;;;;;;5016134;28;20050;-78
2022/11/17 09:10:17;;;;;;;8.98;3.83;;;;;;;;;;5005429;28;20072;-77
2022/11/17 09:12:43;;;;;;;12.45;4.43;;;;;;;;;;5013048;28;20507;-80
2022/11/17 09:15:09;;;;;;;17.20;3.63;;;;;;;;;;5001810;28;20018;-78
2022/11/17 09:17:35;;;;;;;12.50;3.60;;;;;;;;;;5011128;28;20034;-80
2022/11/17 09:20:02;;;;;;;6.65;3.03;;;;;;;;;;5008819;28;20117;-80
2022/11/17 09:22:28;;;;;;;9.55;2.92;;;;;;;;;;5007289;28;21092;-80
2022/11/17 09:24:54;;;;;;;9.20;3.13;;;;;;;;;;5003883;28;20034;-79
2022/11/17 09:27:20;;;;;;;10.68;4.05;;;;;;;;;;5006595;28;20107;-79
2022/11/17 09:29:46;;;;;;;8.27;3.40;;;;;;;;;;5008852;28;20031;-80
2022/11/17 09:32:15;;;;;;;13.82;4.03;;;;;;;;;;5011765;28;20088;-78
2022/11/17 09:34:41;;;;;;;10.70;2.85;;;;;;;;;;5002916;28;20109;-80
2022/11/17 09:37:07;;;;;;;6.45;2.80;;;;;;;;;;5017062;28;20446;-78
2022/11/17 09:39:33;;;;;;;8.35;3.08;;;;;;;;;;5006520;28;20042;-80
2022/11/17 09:42:00;;;;;;;7.47;3.58;;;;;;;;;;5008931;28;20041;-79
2022/11/17 09:44:28;;;;;;;7.80;3.33;;;;;;;;;;5003607;28;20098;-80
2022/11/17 09:47:02;;;;;;;6.45;3.38;;;;;;;;;;5008527;28;20085;-79
2022/11/17 09:49:28;;;;;;;7.20;3.03;;;;;;;;;;5015386;28;20038;-78
2022/11/17 09:51:57;;;;;;;8.68;3.90;;;;;;;;;;5008647;28;20022;-78
2022/11/17 09:54:26;;;;;;;11.93;3.70;;;;;;;;;;5006105;28;20057;-79
2022/11/17 09:56:53;;;;;;;9.07;3.20;;;;;;;;;;5001566;28;20042;-79
2022/11/17 09:59:20;;;;;;;11.65;4.45;;;;;;;;;;4996593;28;20033;-80
2022/11/17 10:01:46;;;;;;;6.75;3.40;;;;;;;;;;5018797;28;20041;-80
2022/11/17 10:04:15;;;;;;;9.95;2.80;;;;;;;;;;5007458;28;20109;-79
2022/11/17 10:06:42;;;;;;;7.97;2.90;;;;;;;;;;5004626;28;20033;-79
2022/11/17 10:09:23;;;;;;;9.57;2.88;;;;;;;;;;4999386;28;20023;-77
2022/11/17 10:11:49;;;;;;;7.28;3.42;;;;;;;;;;5004930;28;20061;-79
2022/11/17 10:14:16;;;;;;;7.60;3.55;;;;;;;;;;5007627;28;20041;-79
2022/11/17 10:16:44;;;;;;;7.50;3.03;;;;;;;;;;5016145;28;20038;-82
2022/11/17 10:19:18;;;;;;;13.55;3.58;;;;;;;;;;5006850;28;20414;-81
2022/11/17 10:21:45;;;;;;;9.90;3.53;;;;;;;;;;5011976;28;20092;-84
2022/11/17 10:24:31;;;;;;;8.52;3.50;;;;;;;;;;5016146;28;20069;-80
2022/11/17 10:26:57;;;;;;;10.55;3.75;;;;;;;;;;5019060;28;20021;-80
2022/11/17 10:29:23;;;;;;;7.55;3.47;;;;;;;;;;5011075;28;20032;-80
2022/11/17 10:31:49;;;;;;;8.85;3.95;;;;;;;;;;5016309;28;20475;-79
2022/11/17 10:34:46;;;;;;;10.45;3.70;;;;;;;;;;5024179;28;20079;-79
2022/11/17 10:37:12;;;;;;;10.57;3.80;;;;;;;;;;5013944;28;20038;-78
2022/11/17 10:39:41;;;;;;;10.30;3.92;;;;;;;;;;5022280;28;20022;-78
2022/11/17 10:42:20;;;;;;;10.63;3.70;;;;;;;;;;5025797;28;20034;-79
2022/11/17 10:44:51;;;;;;;10.90;3.63;;;;;;;;;;5019750;28;20049;-83
2022/11/17 10:47:30;;;;;;;12.13;3.58;;;;;;;;;;5026148;28;20034;-78
2022/11/17 10:50:05;;;;;;;14.52;3.45;;;;;;;;;;5024058;28;20036;-79
2022/11/17 10:52:31;;;;;;;12.32;3.58;;;;;;;;;;5030263;28;20034;-80
2022/11/17 10:55:18;;;;;;;10.52;4.05;;;;;;;;;;5028460;28;20087;-79
2022/11/17 10:57:45;;;;;;;13.65;3.80;;;;;;;;;;5020652;28;20311;-87
2022/11/17 11:00:23;;;;;;;15.40;3.95;;;;;;;;;;5026084;28;20052;-78
2022/11/17 11:02:49;;;;;;;11.55;4.30;;;;;;;;;;5017198;28;20042;-79
2022/11/17 11:05:17;;;;;;;12.55;4.50;;;;;;;;;;5021600;28;20121;-81
2022/11/17 11:07:43;;;;;;;13.43;3.38;;;;;;;;;;5017887;28;20085;-80
2022/11/17 11:10:16;;;;;;;9.23;3.85;;;;;;;;;;5022067;28;20014;-80
2022/11/17 11:12:45;;;;;;;13.10;3.78;;;;;;;;;;5017806;28;20035;-80
2022/11/17 11:15:21;;;;;;;10.75;3.65;;;;;;;;;;5015392;28;20060;-79
2022/11/17 11:17:47;;;;;;;11.30;3.45;;;;;;;;;;5009035;28;20492;-78
2022/11/17 11:20:14;;;;;;;11.95;3.97;;;;;;;;;;5005969;28;20037;-80
2022/11/17 11:22:55;;;;;;;11.68;3.60;;;;;;;;;;5003646;28;20141;-78
2022/11/17 11:25:21;;;;;;;;;;;;;;;;;;5011470;28;20483;-79
2022/11/17 11:27:47;;;;;;;16.75;4.20;;;;;;;;;;5010252;28;19921;-79
2022/11/17 11:30:18;;;;;;;15.80;3.25;;;;;;;;;;5012598;28;20030;-80
2022/11/17 11:32:50;;;;;;;10.23;3.92;;;;;;;;;;5009836;28;20045;-79
2022/11/17 11:35:35;;;;;;;12.77;3.35;;;;;;;;;;5006931;28;20523;-80
2022/11/17 11:38:13;;;;;;;11.93;3.40;;;;;;;;;;5006513;28;20029;-79
2022/11/17 11:40:40;;;;;;;10.52;3.63;;;;;;;;;;5007133;28;20052;-79
2022/11/17 11:43:26;;;;;;;13.25;3.80;;;;;;;;;;5012624;28;20062;-79
2022/11/17 11:45:58;;;;;;;15.45;4.25;;;;;;;;;;5015708;28;20057;-78
2022/11/17 11:48:31;;;;;;;9.63;3.03;;;;;;;;;;5008845;28;20053;-78
2022/11/17 11:50:58;;;;;;;8.90;3.72;;;;;;;;;;5010154;28;20038;-78
2022/11/17 11:53:43;;;;;;;13.70;3.90;;;;;;;;;;5006676;28;20023;-79
2022/11/17 11:56:19;;;;;;;15.60;3.67;;;;;;;;;;5009950;28;20549;-79
2022/11/17 11:59:00;;;;;;;15.05;3.45;;;;;;;;;;5008691;28;20038;-79
2022/11/17 12:01:28;;;;;;;12.40;3.75;;;;;;;;;;5008303;28;20515;-80
2022/11/17 12:03:57;;;;;;;13.00;3.90;;;;;;;;;;5006732;28;20034;-79
2022/11/17 12:06:39;;;;;;;10.32;3.50;;;;;;;;;;5010764;28;20030;-78
2022/11/17 12:09:11;;;;;;;13.13;4.05;;;;;;;;;;5008057;28;20030;-79
2022/11/17 12:14:25;;;;;;;12.35;3.85;;;;;;;;;;5004471;28;20069;-79
2022/11/17 12:17:00;;;;;;;11.95;3.70;;;;;;;;;;5017881;28;20030;-80
2022/11/17 12:19:44;;;;;;;9.93;3.25;;;;;;;;;;5013584;28;20036;-80
2022/11/17 12:22:23;;;;;;;12.75;3.20;;;;;;;;;;5011888;28;20092;-79
2022/11/17 12:24:55;;;;;;;12.82;3.53;;;;;;;;;;5025721;28;20034;-80
2022/11/17 12:27:31;;;;;;;8.18;2.65;;;;;;;;;;5016007;28;20037;-80
2022/11/17 12:29:57;;;;;;;10.68;3.33;;;;;;;;;;5011565;28;20057;-78
2022/11/17 12:32:42;;;;;;;11.40;3.13;;;;;;;;;;5020923;28;20045;-76
2022/11/17 12:35:28;;;;;;;9.50;2.92;;;;;;;;;;5022094;28;20101;-78
2022/11/17 12:38:16;;;;;;;11.13;3.20;;;;;;;;;;5020493;28;20045;-80
2022/11/17 12:41:03;;;;;;;10.38;2.67;;;;;;;;;;5016524;28;20034;-77
2022/11/17 12:43:29;;;;;;;14.40;3.17;;;;;;;;;;5018068;28;20045;-79
2022/11/17 12:45:55;;;;;;;12.75;2.50;;;;;;;;;;5017450;28;20018;-80
2022/11/17 12:48:28;;;;;;;10.05;3.03;;;;;;;;;;5022525;28;20060;-80
2022/11/17 12:51:06;;;;;;;9.90;3.35;;;;;;;;;;5020285;28;20006;-79
2022/11/17 12:53:38;;;;;;;9.05;3.15;;;;;;;;;;5024635;28;20090;-78
2022/11/17 12:56:16;;;;;;;14.15;3.55;;;;;;;;;;5019725;28;20033;-80
2022/11/17 12:58:48;;;;;;;16.85;3.90;;;;;;;;;;5052479;28;20032;-79
2022/11/17 13:01:31;;;;;;;11.52;3.63;;;;;;;;;;5031390;28;20041;-79
2022/11/17 13:04:17;;;;;;;8.77;3.97;;;;;;;;;;5034438;28;20037;-79
2022/11/17 13:07:00;;;;;;;10.95;4.03;;;;;;;;;;5032910;28;20069;-78
2022/11/17 13:09:28;;;;;;;13.52;4.15;;;;;;;;;;5031496;28;20024;-79
2022/11/17 13:12:05;;;;;;;15.57;4.78;;;;;;;;;;5013612;28;20029;-79
2022/11/17 13:14:32;;;;;;;11.25;3.45;;;;;;;;;;5019363;28;20064;-79
2022/11/17 13:16:59;;;;;;;13.73;3.13;;;;;;;;;;5027129;28;21164;-80
2022/11/17 13:19:38;;;;;;;10.13;3.20;;;;;;;;;;5019493;28;20085;-81
2022/11/17 13:22:04;;;;;;;10.90;2.95;;;;;;;;;;5015499;28;20053;-81
2022/11/17 13:24:40;;;;;;;11.68;3.50;;;;;;;;;;5025985;28;20038;-78
2022/11/17 13:27:16;;;;;;;7.60;2.75;;;;;;;;;;5012061;28;20011;-80
2022/11/17 13:29:42;;;;;;;9.70;3.55;;;;;;;;;;5021237;28;20025;-82
2022/11/17 13:32:22;;;;;;;10.85;3.60;;;;;;;;;;5024964;28;20056;-81
2022/11/17 13:34:55;;;;;;;11.13;3.40;;;;;;;;;;5038968;28;20037;-83
2022/11/17 13:37:22;;;;;;;11.18;3.97;;;;;;;;;;5039962;28;20038;-82
2022/11/17 13:39:58;;;;;;;7.63;3.10;;;;;;;;;;5029526;28;20455;-86
2022/11/17 13:42:25;;;;;;;16.50;3.67;;;;;;;;;;5016953;28;20088;-80
2022/11/17 13:44:53;;;;;;;12.35;3.10;;;;;;;;;;5007102;28;20038;-80
2022/11/17 13:47:41;;;;;;;12.95;4.20;;;;;;;;;;5003410;28;20504;-81
2022/11/17 13:50:24;;;;;;;10.77;4.32;;;;;;;;;;5002171;28;20038;-80
2022/11/17 13:53:02;;;;;;;12.63;4.40;;;;;;;;;;5008855;28;20036;-80
2022/11/17 13:55:28;;;;;;;9.18;3.63;;;;;;;;;;5017279;28;20088;-82
2022/11/17 13:58:00;;;;;;;16.20;4.00;;;;;;;;;;5017214;28;20033;-80
2022/11/17 14:00:27;;;;;;;11.63;5.05;;;;;;;;;;5013943;28;20068;-79
2022/11/17 14:02:54;;;;;;;11.10;3.78;;;;;;;;;;5015815;28;20046;-80
2022/11/17 14:05:22;;;;;;;11.55;3.53;;;;;;;;;;5011247;28;20030;-79
2022/11/17 14:08:07;;;;;;;10.75;4.07;;;;;;;;;;4995571;28;20023;-83
2022/11/17 14:10:35;;;;;;;14.13;3.90;;;;;;;;;;4994997;28;20014;-83
2022/11/17 14:13:01;;;;;;;11.60;3.33;;;;;;;;;;4994435;28;20065;-81
2022/11/17 14:15:35;;;;;;;12.93;3.40;;;;;;;;;;5008457;28;20693;-78
2022/11/17 14:18:05;;;;;;;13.73;2.83;;;;;;;;;;5019903;28;20121;-81
2022/11/17 14:20:49;;;;;;;10.57;3.53;;;;;;;;;;5016611;28;20463;-80
2022/11/17 14:23:17;;;;;;;8.27;3.30;;;;;;;;;;5015356;28;20051;-81
2022/11/17 14:25:44;;;;;;;10.77;3.03;;;;;;;;;;5025266;28;20052;-79
2022/11/17 14:28:17;;;;;;;10.85;3.00;;;;;;;;;;5015396;28;20080;-78
2022/11/17 14:30:43;;;;;;;11.13;2.88;;;;;;;;;;5009972;28;20206;-78
2022/11/17 14:33:09;;;;;;;14.50;3.28;;;;;;;;;;5008509;28;20058;-78
2022/11/17 14:35:35;;;;;;;11.20;4.07;;;;;;;;;;5010565;28;20030;-79
2022/11/17 14:38:02;;;;;;;8.27;2.83;;;;;;;;;;5008472;28;20094;-80
2022/11/17 14:40:28;;;;;;;11.13;3.00;;;;;;;;;;5013497;28;20029;-80
2022/11/17 14:42:54;;;;;;;10.32;2.70;;;;;;;;;;5006610;28;20037;-79
2022/11/17 14:45:20;;;;;;;8.73;2.80;;;;;;;;;;5010196;28;20249;-81
2022/11/17 14:47:46;;;;;;;11.20;2.85;;;;;;;;;;5006501;28;20053;-77
2022/11/17 14:50:13;;;;;;;10.27;2.40;;;;;;;;;;5002186;28;20030;-80
2022/11/17 14:52:41;;;;;;;9.13;2.13;;;;;;;;;;5012909;28;20041;-79
2022/11/17 14:55:07;;;;;;;7.95;2.50;;;;;;;;;;5021096;28;20078;-78
2022/11/17 14:57:33;;;;;;;8.32;2.50;;;;;;;;;;5017498;28;20562;-80
2022/11/17 15:00:00;;;;;;;8.55;2.22;;;;;;;;;;5006466;28;20034;-78
2022/11/17 15:02:26;;;;;;;6.55;2.35;;;;;;;;;;5012887;28;20141;-79
2022/11/17 15:04:52;;;;;;;7.47;2.13;;;;;;;;;;5007104;28;20344;-79
2022/11/17 15:07:18;;;;;;;8.82;2.40;;;;;;;;;;5013360;28;20041;-79
2022/11/17 15:09:44;;;;;;;8.23;2.20;;;;;;;;;;5020661;28;20017;-86
2022/11/17 15:12:10;;;;;;;8.55;2.15;;;;;;;;;;5012834;28;20033;-80
2022/11/17 15:14:36;;;;;;;12.05;2.40;;;;;;;;;;5003566;28;20029;-78
2022/11/17 15:17:02;;;;;;;5.30;1.77;;;;;;;;;;5011341;28;20038;-79
2022/11/17 15:19:28;;;;;;;4.43;1.88;;;;;;;;;;5013386;28;20412;-79